Strona główna
METAR-TAF:

METAR-TAF

Lotnisko :

Port lotniczy Kuala Terengganu

Kuala Terengganu, Malezja

Szerokość geograficzna: 05-22-53N, Długość geograficzna: 103-06-17E, wysokość: 6 m

Aktualna obserwacja pogody

Raport powstał 48 minut temu, godzina 03:00 UTC
Wiatr 9 kt od północny wschód w porywach dochodzący do 19 kt, zmienny między północ i wschód
Temperatura 29°C
Wilgotność 70%
Ciśnienie 1013 hPa
Widzialność 10 km lub więcej
Mało chmury na wysokości 1800 ft

METAR: WMKN 100300Z 05009G19KT 010V090 9999 FEW018 29/23 Q1013

czas: 11:48 (03:48 UTC)

Prognoza

Raport powstał 4 godziny i 48 minut temu, godzina 23:00 UTC
Prognoza ważna od 10 godzina 00 UTC do 11 godzina 00 UTC
Wiatr 10 kt od północny wschód w porywach dochodzący do 26 kt
Widzialność 10 km lub więcej
Rozproszone chmury na wysokości 1800 ft

TAF: WMKN 092300Z 1000/1100 05010G26KT 9999 SCT018

Obserwacja i prognoza pogody dla ponad 4000 lotnisk (raport METAR i TAF).

Dostępne stacje oznaczono żółtymi i czerwonymi punktami na mapie.

Najedź kursorem aby zobaczyć nazwę stacji.

Kliknij aby zobaczyć obserwacje i prognozy pogody.

Aby zmienić mapę: kliknij na zielony przycisk z czarnym krzyżykiem, aby powiększyć; na zielony przycisk z myślnikiem, aby pomniejszyć; na zielone strzałki, aby przejść do map sąsiednich.


METAR-TAF: